Time;durP1;ratioP1;P1;durP2;ratioP2;P2;SDS_P1;SDS_P2;PMS_P1;PMS_P2;Temp;Humidity;BMP_temperature;BMP_pressure;BME280_temperature;BME280_humidity;BME280_pressure;Samples;Min_cycle;Max_cycle;Signal;HPM_P1;HPM_P2
2023/03/17 00:01:54;;;;;;;5.63;4.63;;;;;;;10.79;46.41;98530.88;7082641;27;20232;-77
2023/03/17 00:05:18;;;;;;;4.40;4.00;;;;;;;10.67;46.77;98534.44;7083660;27;20361;-77
2023/03/17 00:08:40;;;;;;;6.80;4.33;;;;;;;10.84;46.01;98524.84;7082206;27;20208;-77
2023/03/17 00:12:01;;;;;;;4.10;3.67;;;;;;;10.75;46.46;98524.25;7082962;27;20227;-77
2023/03/17 00:15:25;;;;;;;4.23;3.83;;;;;;;10.68;46.99;98523.47;7083653;27;20497;-77
2023/03/17 00:18:49;;;;;;;5.87;4.30;;;;;;;10.55;47.30;98518.13;7082774;27;20209;-76
2023/03/17 00:22:15;;;;;;;5.60;3.87;;;;;;;10.73;46.63;98517.41;7082330;27;20223;-76
2023/03/17 00:25:41;;;;;;;4.27;3.87;;;;;;;10.66;46.36;98514.75;7083301;27;20212;-76
2023/03/17 00:29:04;;;;;;;5.70;4.63;;;;;;;10.53;47.00;98509.41;7082702;27;20195;-77
2023/03/17 00:32:26;;;;;;;8.87;6.03;;;;;;;10.59;46.99;98492.41;7082475;27;20223;-77
2023/03/17 00:35:49;;;;;;;5.83;4.90;;;;;;;10.54;47.74;98497.59;7083003;27;20196;-77
2023/03/17 00:39:12;;;;;;;4.93;4.43;;;;;;;10.47;47.88;98494.09;7082768;27;20269;-77
2023/03/17 00:42:34;;;;;;;5.33;4.83;;;;;;;10.98;45.35;98478.72;7082165;27;20773;-77
2023/03/17 00:45:55;;;;;;;5.87;4.60;;;;;;;10.99;45.95;98487.66;7082636;27;20276;-77
2023/03/17 00:49:19;;;;;;;5.43;4.90;;;;;;;10.96;46.02;98478.13;7082664;27;20199;-76
2023/03/17 00:52:43;;;;;;;4.77;4.27;;;;;;;11.19;45.57;98472.19;7081417;27;20231;-76
2023/03/17 00:56:10;;;;;;;4.73;4.13;;;;;;;10.96;45.81;98463.78;7081953;27;20207;-76
2023/03/17 00:59:36;;;;;;;5.50;3.77;;;;;;;11.22;45.21;98461.78;7081556;27;20207;-77
2023/03/17 01:02:58;;;;;;;6.30;4.73;;;;;;;11.21;45.11;98470.09;7081778;27;20255;-77
2023/03/17 01:06:19;;;;;;;5.47;4.97;;;;;;;11.33;45.48;98455.69;7081743;27;20284;-78
2023/03/17 01:09:46;;;;;;;5.80;4.20;;;;;;;11.23;45.12;98439.13;7079728;27;20714;-77
2023/03/17 01:13:07;;;;;;;5.77;4.13;;;;;;;11.47;44.41;98442.91;7082038;27;20725;-77
2023/03/17 01:16:29;;;;;;;6.53;4.63;;;;;;;11.60;43.96;98440.97;7082119;27;20302;-78
2023/03/17 01:19:51;;;;;;;8.47;4.20;;;;;;;11.57;44.66;98435.16;7080730;27;20205;-77
2023/03/17 01:23:12;;;;;;;4.87;4.47;;;;;;;11.66;43.68;98425.75;7062813;27;20228;-77
2023/03/17 01:26:35;;;;;;;4.73;4.23;;;;;;;11.74;43.62;98420.09;7052820;28;20229;-78
2023/03/17 01:29:57;;;;;;;6.00;3.90;;;;;;;11.60;44.03;98419.38;7052232;28;20207;-77
2023/03/17 01:33:19;;;;;;;4.90;4.37;;;;;;;11.77;43.79;98435.84;7053087;28;20230;-77
2023/03/17 01:36:42;;;;;;;4.80;4.40;;;;;;;11.79;43.76;98422.94;7051399;28;20261;-77
2023/03/17 01:40:03;;;;;;;5.77;4.20;;;;;;;11.87;43.33;98431.59;7052074;28;20211;-77
2023/03/17 01:43:28;;;;;;;4.63;3.97;;;;;;;11.97;43.34;98425.66;7052923;28;20832;-76
2023/03/17 01:46:49;;;;;;;5.00;4.20;;;;;;;11.94;43.38;98431.53;7052522;28;20323;-77
2023/03/17 01:50:11;;;;;;;6.43;4.50;;;;;;;11.69;43.77;98428.03;7051675;28;20578;-77
2023/03/17 01:53:33;;;;;;;4.60;4.20;;;;;;;11.68;43.91;98421.78;7052037;28;20303;-77
2023/03/17 01:56:57;;;;;;;5.17;4.23;;;;;;;11.15;45.14;98409.72;7052865;28;20200;-76
2023/03/17 02:00:22;;;;;;;6.10;4.33;;;;;;;11.47;44.74;98410.53;7051625;28;20200;-76
2023/03/17 02:03:44;;;;;;;5.07;3.87;;;;;;;11.39;45.53;98424.31;7069194;27;20252;-76
2023/03/17 02:07:06;;;;;;;4.93;3.80;;;;;;;11.34;45.54;98424.13;7080302;27;20362;-78
2023/03/17 02:10:28;;;;;;;3.90;3.60;;;;;;;11.04;46.07;98413.13;7079393;27;20777;-76
2023/03/17 02:13:50;;;;;;;6.30;4.20;;;;;;;11.06;46.65;98412.91;7079846;27;20348;-76
2023/03/17 02:17:13;;;;;;;4.30;3.90;;;;;;;10.76;47.13;98417.25;7080142;27;20260;-76
2023/03/17 02:21:14;;;;;;;5.90;4.00;;;;;;;10.78;47.32;98415.97;7079602;27;20223;-77
2023/03/17 02:24:39;;;;;;;4.50;4.10;;;;;;;10.53;47.64;98380.03;7079713;27;20337;-78
2023/03/17 02:28:02;;;;;;;5.70;5.20;;;;;;;10.87;47.46;98401.19;7080109;27;20199;-77
2023/03/17 02:31:24;;;;;;;13.90;10.43;;;;;;;10.87;46.45;98366.13;7065399;27;20227;-78
2023/03/17 02:34:47;;;;;;;6.67;5.43;;;;;;;11.27;46.18;98399.06;7051328;28;20260;-77
2023/03/17 02:38:08;;;;;;;7.37;4.43;;;;;;;11.02;46.70;98422.47;7050078;28;20668;-77
2023/03/17 02:41:31;;;;;;;5.00;3.80;;;;;;;10.82;47.51;98421.78;7053416;28;20228;-77
2023/03/17 02:44:53;;;;;;;4.13;3.53;;;;;;;10.62;47.77;98413.78;7079600;28;20254;-77
2023/03/17 02:48:15;;;;;;;5.60;4.07;;;;;;;10.68;48.27;98415.63;7079706;28;20290;-77
2023/03/17 02:51:36;;;;;;;4.53;4.13;;;;;;;10.56;48.42;98417.34;7078503;28;20264;-77
2023/03/17 02:54:58;;;;;;;4.10;3.80;;;;;;;10.70;47.74;98407.31;7079607;28;20686;-77
2023/03/17 02:58:21;;;;;;;4.87;4.47;;;;;;;10.61;47.96;98406.75;7079393;28;20288;-78
2023/03/17 03:01:42;;;;;;;3.90;3.60;;;;;;;9.90;48.78;98388.94;7078924;28;20581;-76
2023/03/17 03:05:06;;;;;;;4.27;3.80;;;;;;;9.85;49.54;98393.28;7079337;28;20283;-78
2023/03/17 03:08:28;;;;;;;4.53;3.97;;;;;;;10.09;49.28;98392.66;7078300;28;20294;-78
2023/03/17 03:11:50;;;;;;;5.00;3.70;;;;;;;10.11;49.68;98393.25;7077221;28;20224;-78
2023/03/17 03:15:13;;;;;;;5.47;3.90;;;;;;;10.20;49.36;98391.97;7079110;28;20203;-77
2023/03/17 03:18:34;;;;;;;4.67;4.27;;;;;;;10.26;49.77;98399.19;7079200;28;20624;-76
2023/03/17 03:21:57;;;;;;;4.57;3.97;;;;;;;10.33;49.54;98395.44;7078727;28;20227;-78
2023/03/17 03:25:19;;;;;;;4.40;4.00;;;;;;;10.11;49.09;98391.38;7079531;27;20705;-76
2023/03/17 03:28:40;;;;;;;5.00;4.60;;;;;;;10.32;49.09;98371.41;7084334;27;20263;-78
2023/03/17 03:32:03;;;;;;;4.53;4.13;;;;;;;10.39;48.14;98372.22;7083552;27;20842;-77
2023/03/17 03:35:25;;;;;;;3.67;3.37;;;;;;;10.29;48.94;98390.72;7083674;27;20226;-76
2023/03/17 03:38:46;;;;;;;4.47;4.07;;;;;;;9.30;51.23;98386.53;7084513;27;20291;-78
2023/03/17 03:42:08;;;;;;;4.07;3.73;;;;;;;9.41;51.70;98395.84;7083395;27;20834;-76
2023/03/17 03:45:29;;;;;;;4.27;3.93;;;;;;;9.52;51.17;98398.72;7084269;27;20280;-76
2023/03/17 03:48:52;;;;;;;3.53;3.33;;;;;;;9.58;51.29;98395.19;7084173;27;20203;-77
2023/03/17 03:52:14;;;;;;;6.60;4.17;;;;;;;9.84;50.71;98408.63;7083141;27;20291;-77
2023/03/17 03:55:35;;;;;;;5.83;3.77;;;;;;;9.84;50.44;98376.31;7083906;27;20256;-77
2023/03/17 03:58:57;;;;;;;5.20;3.90;;;;;;;9.96;49.90;98392.63;7083871;27;20566;-77
2023/03/17 04:02:19;;;;;;;3.90;3.60;;;;;;;9.67;51.01;98391.25;7083372;27;20235;-77
2023/03/17 04:05:42;;;;;;;4.87;3.73;;;;;;;9.45;51.19;98400.59;7082474;27;20802;-77
2023/03/17 04:09:03;;;;;;;4.67;4.00;;;;;;;9.45;51.22;98389.81;7084046;27;20669;-76
2023/03/17 04:12:25;;;;;;;4.60;4.10;;;;;;;9.40;51.50;98392.31;7100132;27;20285;-76
2023/03/17 04:15:46;;;;;;;4.43;4.03;;;;;;;9.55;51.30;98401.00;7083743;27;20581;-77
2023/03/17 04:19:08;;;;;;;3.97;3.57;;;;;;;9.05;51.86;98396.22;7083580;27;20208;-76
2023/03/17 04:22:31;;;;;;;4.83;4.20;;;;;;;9.10;52.30;98393.75;7082613;27;20314;-76
2023/03/17 04:25:53;;;;;;;8.23;5.43;;;;;;;9.18;51.93;98390.03;7082800;27;20314;-77
2023/03/17 04:29:15;;;;;;;4.47;4.07;;;;;;;9.31;51.45;98390.03;7083233;27;20321;-76
2023/03/17 04:32:36;;;;;;;4.63;3.97;;;;;;;8.84;51.72;98360.63;7081796;27;20221;-76
2023/03/17 04:35:58;;;;;;;4.90;4.50;;;;;;;9.05;52.13;98387.34;7081561;27;20733;-76
2023/03/17 04:39:21;;;;;;;4.47;4.07;;;;;;;9.03;51.53;98367.91;7081879;27;20204;-78
2023/03/17 04:42:42;;;;;;;6.43;4.07;;;;;;;9.18;51.57;98392.72;7074016;27;20571;-76
2023/03/17 04:46:04;;;;;;;9.93;5.07;;;;;;;9.18;51.17;98390.03;7054130;28;20448;-76
2023/03/17 04:49:26;;;;;;;7.87;5.77;;;;;;;8.59;52.47;98383.75;7053583;28;20200;-76
2023/03/17 04:52:47;;;;;;;7.70;5.57;;;;;;;8.10;53.54;98393.03;7053130;28;20233;-77
2023/03/17 04:56:11;;;;;;;7.53;5.63;;;;;;;8.41;53.83;98386.16;7066929;27;20253;-76
2023/03/17 04:59:32;;;;;;;6.90;5.03;;;;;;;8.33;53.21;98381.00;7081810;27;20203;-77
2023/03/17 05:02:53;;;;;;;7.07;5.20;;;;;;;8.44;52.61;98385.75;7081547;27;20233;-77
2023/03/17 05:06:16;;;;;;;6.73;4.53;;;;;;;8.36;52.99;98374.38;7081710;27;20588;-77
2023/03/17 05:09:38;;;;;;;5.20;4.70;;;;;;;8.31;53.08;98360.72;7080885;27;20337;-77
2023/03/17 05:13:01;;;;;;;5.00;4.60;;;;;;;8.46;52.57;98372.13;7081637;27;20593;-77
2023/03/17 05:16:22;;;;;;;6.93;4.50;;;;;;;8.15;53.16;98367.25;7082127;27;20588;-76
2023/03/17 05:19:44;;;;;;;5.27;4.77;;;;;;;7.65;53.67;98275.53;7080771;27;20273;-76
2023/03/17 05:23:06;;;;;;;5.57;4.90;;;;;;;8.05;53.47;98349.84;7080889;27;20574;-76
2023/03/17 05:26:27;;;;;;;6.93;4.87;;;;;;;7.84;53.76;98350.78;7081155;27;20701;-77
2023/03/17 05:29:50;;;;;;;4.87;4.37;;;;;;;7.77;54.03;98339.19;7080006;27;20248;-78
2023/03/17 05:33:11;;;;;;;7.83;4.73;;;;;;;7.45;54.85;98352.41;7081357;27;20227;-78
2023/03/17 05:36:33;;;;;;;5.50;5.00;;;;;;;7.39;56.17;98358.56;7080954;27;20251;-78
2023/03/17 05:39:54;;;;;;;5.93;5.23;;;;;;;7.67;55.11;98365.53;7079814;27;20213;-75
2023/03/17 05:43:16;;;;;;;5.20;4.70;;;;;;;8.11;54.43;98378.56;7080884;27;20225;-76
2023/03/17 05:46:39;;;;;;;8.63;5.53;;;;;;;7.88;54.25;98378.03;7080682;27;20224;-77
2023/03/17 05:50:01;;;;;;;5.53;4.90;;;;;;;7.74;54.64;98381.69;7081801;27;20665;-77
2023/03/17 05:53:22;;;;;;;6.97;4.80;;;;;;;8.01;53.60;98359.34;7065375;27;20231;-77
2023/03/17 05:56:44;;;;;;;8.23;5.20;;;;;;;8.43;52.49;98383.28;7080355;27;20381;-78
2023/03/17 06:00:06;;;;;;;6.80;5.30;;;;;;;7.45;54.76;98387.28;7078424;27;20205;-77
2023/03/17 06:03:29;;;;;;;7.17;5.27;;;;;;;7.34;55.45;98383.28;7083344;27;20352;-76
2023/03/17 06:06:51;;;;;;;6.53;5.93;;;;;;;7.67;55.37;98378.13;7084483;27;20369;-78
2023/03/17 06:10:12;;;;;;;6.83;5.83;;;;;;;7.78;54.39;98383.78;7080372;27;20697;-76
2023/03/17 06:13:34;;;;;;;6.40;5.80;;;;;;;7.99;54.28;98367.59;7053637;28;20228;-79
2023/03/17 06:16:56;;;;;;;7.43;5.57;;;;;;;8.35;53.47;98378.06;7082148;27;20203;-78
2023/03/17 06:20:19;;;;;;;9.57;6.70;;;;;;;8.38;52.78;98375.00;7084054;27;20207;-78
2023/03/17 06:23:41;;;;;;;7.13;6.30;;;;;;;7.76;54.13;98360.84;7091086;27;20729;-78
2023/03/17 06:27:02;;;;;;;8.27;6.60;;;;;;;7.73;55.29;98382.72;7097837;27;20315;-77
2023/03/17 06:30:24;;;;;;;8.37;6.13;;;;;;;8.36;53.76;98394.00;7085599;27;20414;-79
2023/03/17 06:33:45;;;;;;;7.33;6.63;;;;;;;8.62;53.06;98375.28;7083337;27;20264;-79
2023/03/17 06:37:09;;;;;;;7.87;6.10;;;;;;;8.22;53.41;98361.91;7056573;28;20645;-79
2023/03/17 06:40:30;;;;;;;8.77;5.90;;;;;;;9.01;52.96;98386.09;7055266;28;20200;-77
2023/03/17 06:43:52;;;;;;;6.63;5.83;;;;;;;9.48;50.81;98392.13;7065209;28;20210;-78
2023/03/17 06:47:13;;;;;;;9.40;6.23;;;;;;;8.83;51.73;98382.38;7084869;28;20310;-78
2023/03/17 06:50:35;;;;;;;6.53;5.63;;;;;;;9.30;52.28;98383.00;7083084;28;20206;-81
2023/03/17 06:53:58;;;;;;;7.37;5.93;;;;;;;10.27;49.33;98384.72;7084507;28;20332;-79
2023/03/17 06:57:19;;;;;;;8.43;6.00;;;;;;;10.59;48.22;98372.94;7075925;27;20245;-79
2023/03/17 07:00:41;;;;;;;7.30;6.23;;;;;;;9.44;50.91;98374.72;7066561;28;20578;-78
2023/03/17 07:04:03;;;;;;;6.77;5.80;;;;;;;10.44;49.57;98370.53;7060821;28;20209;-78
2023/03/17 07:07:24;;;;;;;6.80;6.20;;;;;;;11.04;47.51;98344.88;7062009;28;20228;-83
2023/03/17 07:10:47;;;;;;;5.70;5.20;;;;;;;11.24;47.61;98356.31;7060580;28;20741;-83
2023/03/17 07:14:09;;;;;;;6.30;5.30;;;;;;;11.41;46.50;98335.84;7061993;28;20279;-79
2023/03/17 07:17:30;;;;;;;6.70;5.67;;;;;;;12.04;46.58;98359.72;7060525;28;20236;-79
2023/03/17 07:20:52;;;;;;;6.40;5.47;;;;;;;12.59;44.60;98342.41;7058273;28;20576;-83
2023/03/17 07:24:13;;;;;;;7.20;5.37;;;;;;;13.77;42.96;98358.44;7057756;28;20209;-75
2023/03/17 07:27:36;;;;;;;5.67;4.83;;;;;;;14.15;42.36;98356.03;7055383;28;20232;-77
2023/03/17 07:30:59;;;;;;;5.03;4.47;;;;;;;14.51;40.89;98352.22;7058751;27;20268;-76
2023/03/17 07:34:21;;;;;;;7.17;4.63;;;;;;;15.08;39.70;98326.69;7055709;28;20672;-75
2023/03/17 07:37:43;;;;;;;5.17;4.67;;;;;;;15.52;38.00;98342.94;7055979;28;20201;-76
2023/03/17 07:41:08;;;;;;;8.90;7.53;;;;;;;15.74;37.74;98340.31;7054922;28;20263;-76
2023/03/17 07:44:32;;;;;;;9.10;5.67;;;;;;;16.08;37.63;98350.88;7055910;28;20240;-77
2023/03/17 07:47:53;;;;;;;5.17;4.47;;;;;;;15.89;38.70;98346.78;7055163;28;20227;-76
2023/03/17 07:51:21;;;;;;;4.90;4.40;;;;;;;16.11;38.11;98328.59;7075255;27;20242;-75
2023/03/17 07:54:43;;;;;;;5.20;4.60;;;;;;;16.23;38.08;98328.50;7083676;27;20673;-78
2023/03/17 07:58:05;;;;;;;7.30;4.53;;;;;;;16.00;37.68;98336.88;7083792;27;20202;-75
2023/03/17 08:01:29;;;;;;;14.43;6.00;;;;;;;16.42;37.07;98338.00;7082491;27;20374;-77
2023/03/17 08:04:50;;;;;;;11.53;6.20;;;;;;;15.91;37.46;98338.38;7082888;27;20554;-77
2023/03/17 08:08:12;;;;;;;13.47;6.00;;;;;;;16.03;37.67;98330.91;7058799;27;20227;-76
2023/03/17 08:11:34;;;;;;;9.77;5.73;;;;;;;15.86;38.41;98339.13;7053456;28;20336;-76
2023/03/17 08:14:55;;;;;;;13.33;5.90;;;;;;;16.23;38.04;98332.00;7054586;28;20212;-76
2023/03/17 08:18:18;;;;;;;16.60;5.20;;;;;;;16.50;38.36;98323.94;7054785;28;20224;-76
2023/03/17 08:21:40;;;;;;;12.73;5.00;;;;;;;16.95;36.43;98325.28;7075168;27;20369;-76
2023/03/17 08:25:02;;;;;;;8.10;5.90;;;;;;;17.16;36.06;98329.84;7082591;27;20209;-76
2023/03/17 08:28:23;;;;;;;7.67;4.53;;;;;;;17.75;34.60;98336.09;7110921;27;20219;-80
2023/03/17 08:31:45;;;;;;;4.90;4.37;;;;;;;17.46;33.75;98326.59;7110417;27;20668;-78
2023/03/17 08:35:11;;;;;;;4.33;3.90;;;;;;;18.20;33.36;98337.19;7110690;27;20288;-76
2023/03/17 08:38:32;;;;;;;4.63;3.93;;;;;;;18.14;32.29;98342.88;7098433;27;20196;-76
2023/03/17 08:41:54;;;;;;;6.40;4.20;;;;;;;17.27;33.00;98336.22;7081464;27;20223;-76
2023/03/17 08:45:18;;;;;;;6.23;4.43;;;;;;;18.16;33.20;98327.09;7082004;27;20211;-75
2023/03/17 08:48:40;;;;;;;7.87;5.20;;;;;;;18.64;33.03;98321.31;7082322;27;20228;-76
2023/03/17 08:52:03;;;;;;;5.40;4.17;;;;;;;17.91;33.77;98324.19;7081288;27;20236;-76
2023/03/17 08:55:25;;;;;;;10.00;4.73;;;;;;;18.14;33.86;98307.41;7081797;27;20208;-76
2023/03/17 08:58:46;;;;;;;4.90;3.97;;;;;;;18.94;31.65;98305.84;7053506;27;20268;-77
2023/03/17 09:02:10;;;;;;;3.67;3.23;;;;;;;18.98;29.23;98317.84;7052391;28;20281;-76
2023/03/17 09:05:32;;;;;;;4.87;3.27;;;;;;;18.73;29.60;98306.88;7053724;28;20237;-76
2023/03/17 09:08:55;;;;;;;3.50;3.20;;;;;;;19.27;28.90;98310.00;7053331;28;20239;-76
2023/03/17 09:12:16;;;;;;;3.83;3.00;;;;;;;18.80;30.69;98304.69;7052772;28;20232;-76
2023/03/17 09:15:38;;;;;;;4.03;3.20;;;;;;;19.65;29.90;98287.56;7052969;28;20206;-76
2023/03/17 09:19:00;;;;;;;4.00;3.40;;;;;;;20.29;28.85;98303.03;7053132;28;20564;-76
2023/03/17 09:22:21;;;;;;;3.53;3.13;;;;;;;20.37;27.92;98294.25;7052436;27;20281;-77
2023/03/17 09:25:45;;;;;;;4.37;3.00;;;;;;;20.88;28.43;98292.06;7077080;27;20211;-76
2023/03/17 09:29:06;;;;;;;4.43;3.30;;;;;;;21.24;26.34;98284.16;7080737;27;20716;-76
2023/03/17 09:32:28;;;;;;;4.23;3.20;;;;;;;21.49;27.11;98285.91;7080764;27;20223;-76
2023/03/17 09:35:51;;;;;;;3.00;2.70;;;;;;;21.86;27.00;98283.38;7081106;27;20207;-76
2023/03/17 09:39:12;;;;;;;5.30;2.83;;;;;;;21.57;26.73;98266.88;7080605;27;20205;-76
2023/03/17 09:42:42;;;;;;;3.47;2.60;;;;;;;21.98;26.40;98283.78;7080260;27;20620;-76
2023/03/17 09:46:16;;;;;;;4.87;3.03;;;;;;;22.31;25.78;98280.94;7080855;27;20236;-76
2023/03/17 09:49:43;;;;;;;3.97;2.83;;;;;;;20.05;27.24;98282.00;7076506;27;20198;-77
2023/03/17 09:53:05;;;;;;;3.33;2.53;;;;;;;21.13;26.78;98283.72;7079203;27;20856;-78
2023/03/17 09:56:28;;;;;;;2.60;2.40;;;;;;;21.84;26.27;98280.91;7080254;27;20240;-78
2023/03/17 09:59:54;;;;;;;4.23;3.10;;;;;;;21.29;26.94;98297.84;7075783;27;20304;-76
2023/03/17 10:03:16;;;;;;;3.40;3.10;;;;;;;21.84;26.28;98288.34;7080274;27;20228;-79
2023/03/17 10:06:39;;;;;;;4.30;2.93;;;;;;;21.21;27.05;98281.19;7079885;27;20207;-76
2023/03/17 10:10:02;;;;;;;2.97;2.77;;;;;;;21.02;27.34;98279.41;7079383;27;20209;-76
2023/03/17 10:13:34;;;;;;;3.20;2.80;;;;;;;19.98;28.65;98281.50;7079274;27;20255;-77
2023/03/17 10:17:01;;;;;;;4.73;3.00;;;;;;;19.88;28.43;98282.31;7080227;27;20191;-78
2023/03/17 10:20:25;;;;;;;4.07;3.13;;;;;;;20.52;28.07;98272.25;7073138;27;20209;-77
2023/03/17 10:23:47;;;;;;;3.27;2.87;;;;;;;21.86;26.95;98253.19;7051853;28;20211;-76
2023/03/17 10:27:11;;;;;;;4.00;3.13;;;;;;;22.20;26.22;98254.69;7049716;28;20343;-77
2023/03/17 10:30:34;;;;;;;3.73;3.20;;;;;;;23.12;24.74;98244.97;7050862;28;20206;-77
2023/03/17 10:33:58;;;;;;;3.00;2.67;;;;;;;22.47;25.51;98243.13;7051432;28;20221;-76
2023/03/17 10:37:23;;;;;;;3.47;2.70;;;;;;;21.65;25.76;98247.03;7058986;27;20533;-77
2023/03/17 10:40:47;;;;;;;2.70;2.50;;;;;;;22.85;24.22;98245.63;7079760;27;20419;-81
2023/03/17 10:44:10;;;;;;;3.20;2.80;;;;;;;21.71;26.55;98209.44;7083557;28;20211;-77
2023/03/17 10:47:38;;;;;;;2.90;2.60;;;;;;;22.63;25.05;98234.41;7086170;28;20722;-82
2023/03/17 10:51:06;;;;;;;3.80;2.70;;;;;;;22.82;25.61;98188.50;7098857;28;20223;-79
2023/03/17 10:54:27;;;;;;;5.30;3.33;;;;;;;22.82;26.22;98221.47;7081009;28;20261;-78
2023/03/17 10:57:51;;;;;;;3.70;2.40;;;;;;;23.87;24.49;98218.88;7083443;28;20314;-79
2023/03/17 11:01:18;;;;;;;3.13;2.63;;;;;;;24.32;24.08;98218.00;7086004;27;20261;-80
2023/03/17 11:04:42;;;;;;;2.43;2.23;;;;;;;24.09;24.20;98214.34;7080722;28;20207;-80
2023/03/17 11:08:11;;;;;;;2.73;2.40;;;;;;;24.35;23.78;98165.84;7085010;28;20229;-80
2023/03/17 11:11:34;;;;;;;4.70;2.70;;;;;;;22.64;25.28;98224.22;7093213;28;20308;-79
2023/03/17 11:14:59;;;;;;;2.47;2.27;;;;;;;23.60;23.65;98221.59;7093731;28;20511;-83
2023/03/17 11:18:23;;;;;;;6.50;2.60;;;;;;;22.15;25.13;98205.34;7104996;28;20206;-79
2023/03/17 11:21:51;;;;;;;2.80;2.50;;;;;;;22.36;25.09;98173.75;7094407;28;20228;-80
2023/03/17 11:25:16;;;;;;;2.67;2.43;;;;;;;22.36;24.98;98206.72;7064424;28;20860;-77
2023/03/17 11:28:39;;;;;;;2.37;2.17;;;;;;;22.85;24.76;98178.84;7059220;28;20311;-78
2023/03/17 11:32:10;;;;;;;2.40;2.20;;;;;;;23.04;24.56;98152.94;7069493;28;20226;-78
2023/03/17 11:35:38;;;;;;;3.13;2.40;;;;;;;24.31;23.63;98170.31;7087055;28;20225;-81
2023/03/17 11:39:04;;;;;;;2.20;2.00;;;;;;;23.62;24.69;98175.31;7087121;28;20689;-84
2023/03/17 11:42:31;;;;;;;2.87;2.20;;;;;;;24.30;24.44;98171.47;7081330;28;20279;-79
2023/03/17 11:45:56;;;;;;;2.43;2.23;;;;;;;24.74;23.36;98171.59;7084137;28;20663;-80
2023/03/17 11:49:21;;;;;;;2.97;2.33;;;;;;;24.33;23.50;98151.56;7088394;27;20212;-83
2023/03/17 11:52:52;;;;;;;4.90;2.80;;;;;;;24.59;23.05;98166.44;7088915;27;20627;-80
2023/03/17 11:56:17;;;;;;;2.60;2.40;;;;;;;23.04;24.66;98149.38;7088876;27;20243;-81
2023/03/17 11:59:46;;;;;;;2.73;2.43;;;;;;;23.16;25.06;98146.97;7087489;27;20207;-80
2023/03/17 12:03:13;;;;;;;2.93;2.43;;;;;;;23.75;24.02;98150.56;7086335;27;20280;-79
2023/03/17 12:06:38;;;;;;;2.40;2.20;;;;;;;24.30;22.69;98141.16;7080437;27;20201;-79
2023/03/17 12:10:07;;;;;;;3.20;2.20;;;;;;;24.29;22.28;98149.72;7073560;27;20264;-79
2023/03/17 12:13:38;;;;;;;2.87;2.00;;;;;;;24.75;21.63;98148.41;7084652;27;20771;-76
2023/03/17 12:17:04;;;;;;;3.00;2.23;;;;;;;24.95;22.48;98136.88;7082240;27;20713;-76
2023/03/17 12:20:31;;;;;;;3.03;2.20;;;;;;;24.99;21.86;98132.38;7081362;27;20267;-76
2023/03/17 12:23:59;;;;;;;3.70;2.20;;;;;;;25.76;21.11;98147.44;7082046;27;20218;-76
2023/03/17 12:27:24;;;;;;;4.30;2.17;;;;;;;24.59;22.29;98127.03;7082255;27;20285;-76
2023/03/17 12:30:50;;;;;;;3.37;1.97;;;;;;;24.93;22.20;98122.59;7081376;27;20223;-76
2023/03/17 12:34:20;;;;;;;2.73;2.30;;;;;;;24.66;22.75;98119.94;7084955;27;20358;-77
2023/03/17 12:37:41;;;;;;;3.20;2.20;;;;;;;24.31;23.53;98117.19;7083574;27;20201;-76
2023/03/17 12:41:17;;;;;;;4.10;2.37;;;;;;;24.33;22.76;98121.25;7081631;27;20222;-77
2023/03/17 12:44:49;;;;;;;2.63;2.07;;;;;;;25.56;21.57;98108.53;7081805;27;20350;-76
2023/03/17 12:48:37;;;;;;;2.60;2.30;;;;;;;24.42;21.97;98122.13;7081960;27;20701;-76
2023/03/17 12:52:24;;;;;;;1.87;1.73;;;;;;;25.72;20.03;98107.78;7081051;27;20729;-77
2023/03/17 12:55:49;;;;;;;5.50;2.10;;;;;;;25.38;20.33;98101.31;7082360;27;20207;-76
2023/03/17 12:59:15;;;;;;;2.20;1.90;;;;;;;25.78;21.11;98109.25;7082709;27;20211;-77
2023/03/17 13:02:39;;;;;;;2.43;1.90;;;;;;;25.52;20.29;98110.28;7084846;27;20228;-77
2023/03/17 13:06:03;;;;;;;3.00;2.00;;;;;;;25.53;21.42;98098.09;7084349;27;20211;-76
2023/03/17 13:09:44;;;;;;;3.43;2.50;;;;;;;25.94;20.89;98104.13;7080993;27;20708;-76
2023/03/17 13:13:35;;;;;;;3.73;2.40;;;;;;;26.61;20.53;98075.81;7076309;27;20235;-80
2023/03/17 13:17:04;;;;;;;3.07;2.10;;;;;;;24.73;21.15;98089.97;7062118;27;20215;-76
2023/03/17 13:20:37;;;;;;;5.17;2.07;;;;;;;24.91;20.91;98086.25;7053043;28;20212;-78
2023/03/17 13:24:21;;;;;;;2.20;2.00;;;;;;;25.92;19.11;98068.56;7053193;28;20695;-78
2023/03/17 13:27:48;;;;;;;2.80;1.80;;;;;;;25.46;20.23;98059.13;7053111;28;20260;-80
2023/03/17 13:31:15;;;;;;;1.90;1.37;;;;;;;25.17;19.46;98070.66;7053234;28;20224;-78
2023/03/17 13:34:45;;;;;;;1.83;1.67;;;;;;;26.25;18.47;98047.63;7053302;28;20212;-78
2023/03/17 13:38:37;;;;;;;1.70;1.60;;;;;;;25.42;17.48;98052.63;7054529;28;20667;-81
2023/03/17 13:42:19;;;;;;;1.63;1.40;;;;;;;26.26;16.67;98046.50;7053053;28;20632;-78
2023/03/17 13:45:43;;;;;;;1.87;1.40;;;;;;;26.33;17.16;98041.31;7056548;28;20293;-79
2023/03/17 13:49:15;;;;;;;1.33;1.30;;;;;;;26.31;18.00;98040.81;7056037;28;20229;-80
2023/03/17 13:52:41;;;;;;;3.90;1.63;;;;;;;26.45;18.12;98035.94;7055726;28;20233;-83
2023/03/17 13:56:10;;;;;;;2.10;1.90;;;;;;;26.48;18.78;98037.25;7057907;28;20571;-80
2023/03/17 13:59:35;;;;;;;2.43;2.03;;;;;;;25.42;19.10;98017.53;7053356;28;20609;-78
2023/03/17 14:03:03;;;;;;;1.77;1.67;;;;;;;25.66;19.40;98020.69;7055895;28;20299;-84
2023/03/17 14:06:30;;;;;;;1.83;1.60;;;;;;;26.15;18.15;98023.09;7057061;27;20306;-79
2023/03/17 14:09:53;;;;;;;4.73;1.90;;;;;;;26.21;18.58;98019.03;7058629;27;20212;-78
2023/03/17 14:13:18;;;;;;;1.70;1.60;;;;;;;25.92;18.35;98016.09;7057265;28;20267;-79
2023/03/17 14:16:44;;;;;;;2.20;2.00;;;;;;;25.67;18.63;98019.56;7056954;28;20191;-83
2023/03/17 14:20:20;;;;;;;1.93;1.67;;;;;;;26.39;17.91;98019.84;7054854;28;20216;-78
2023/03/17 14:23:41;;;;;;;3.17;1.70;;;;;;;26.14;18.66;98012.38;7058089;28;20195;-78
2023/03/17 14:27:07;;;;;;;3.13;1.70;;;;;;;26.46;18.59;97996.09;7068878;27;20225;-78
2023/03/17 14:30:31;;;;;;;3.80;1.77;;;;;;;25.78;18.77;97996.03;7093102;27;20276;-77
2023/03/17 14:33:55;;;;;;;1.60;1.50;;;;;;;26.61;18.10;98003.09;7075283;28;20234;-77
2023/03/17 14:37:18;;;;;;;3.30;1.90;;;;;;;25.65;19.01;97996.19;7076387;28;20206;-77
2023/03/17 14:40:40;;;;;;;2.83;1.53;;;;;;;24.53;20.13;98002.25;7075495;28;20672;-77
2023/03/17 14:44:02;;;;;;;2.60;1.80;;;;;;;25.15;19.85;98000.38;7075537;28;20196;-78
2023/03/17 14:47:24;;;;;;;1.87;1.73;;;;;;;25.08;20.54;98000.81;7093713;28;20212;-79
2023/03/17 14:50:51;;;;;;;3.20;1.90;;;;;;;24.96;21.08;97988.75;7082729;28;20245;-79
2023/03/17 14:54:16;;;;;;;3.57;2.00;;;;;;;25.02;21.10;97987.50;7080798;28;20199;-79
2023/03/17 14:57:37;;;;;;;4.27;2.20;;;;;;;24.89;21.31;97971.84;7065576;28;20674;-79
2023/03/17 15:01:03;;;;;;;5.10;3.40;;;;;;;25.11;21.66;97989.16;7051880;28;20242;-79
2023/03/17 15:04:26;;;;;;;4.63;2.50;;;;;;;24.81;21.18;97991.91;7051923;28;20267;-78
2023/03/17 15:07:47;;;;;;;2.30;2.00;;;;;;;24.97;21.62;97974.66;7050177;28;20265;-78
2023/03/17 15:11:18;;;;;;;2.23;1.80;;;;;;;24.95;20.91;97976.91;7065565;28;20285;-78
2023/03/17 15:14:40;;;;;;;3.13;2.00;;;;;;;24.54;22.02;97992.84;7078605;27;20206;-78
2023/03/17 15:18:05;;;;;;;2.20;2.00;;;;;;;24.37;22.53;97995.47;7055820;28;20202;-78
2023/03/17 15:21:34;;;;;;;1.83;1.73;;;;;;;24.38;22.41;97975.09;7050542;27;20368;-78
2023/03/17 15:25:00;;;;;;;2.70;2.00;;;;;;;24.37;23.46;97973.44;7056230;27;20270;-78
2023/03/17 15:28:25;;;;;;;2.40;2.20;;;;;;;24.46;23.00;97987.28;7075622;27;20223;-78
2023/03/17 15:31:46;;;;;;;2.20;2.00;;;;;;;24.40;23.21;97983.03;7083637;27;20310;-78
2023/03/17 15:35:11;;;;;;;2.63;1.70;;;;;;;24.38;23.53;97986.13;7084524;27;20558;-78
2023/03/17 15:38:33;;;;;;;1.97;1.70;;;;;;;24.70;23.50;97985.03;7084109;27;20196;-78
2023/03/17 15:41:54;;;;;;;3.13;1.87;;;;;;;24.67;23.08;97983.72;7083642;27;20229;-78
2023/03/17 15:45:18;;;;;;;1.90;1.80;;;;;;;25.18;22.45;97985.94;7084287;27;20595;-78
2023/03/17 15:48:39;;;;;;;2.10;1.90;;;;;;;24.60;23.05;97982.56;7083976;27;20231;-78
2023/03/17 15:52:01;;;;;;;1.93;1.80;;;;;;;24.54;22.74;97981.03;7082419;27;20232;-78
2023/03/17 15:55:24;;;;;;;2.90;1.80;;;;;;;24.26;23.38;97980.31;7083729;27;20355;-78
2023/03/17 15:58:46;;;;;;;1.90;1.80;;;;;;;24.04;23.34;97980.34;7083762;27;20291;-78
2023/03/17 16:02:26;;;;;;;2.43;2.00;;;;;;;24.17;23.57;97984.16;7082964;27;20241;-77